sensor_id;sensor_type;location;lat;lon;timestamp;pressure;altitude;pressure_sealevel;temperature;humidity
39141;BME280;24875;48.436;10.298;2023-02-21T00:02:39;96754.13;;;7.28;91.02
39141;BME280;24875;48.436;10.298;2023-02-21T00:05:23;96744.47;;;7.29;90.92
39141;BME280;24875;48.436;10.298;2023-02-21T00:08:07;96748.44;;;7.33;90.04
39141;BME280;24875;48.436;10.298;2023-02-21T00:10:51;96741.31;;;7.26;90.91
39141;BME280;24875;48.436;10.298;2023-02-21T00:13:37;96747.31;;;7.35;90.92
39141;BME280;24875;48.436;10.298;2023-02-21T00:16:21;96745.88;;;7.24;90.57
39141;BME280;24875;48.436;10.298;2023-02-21T00:19:06;96743.94;;;7.26;90.87
39141;BME280;24875;48.436;10.298;2023-02-21T00:21:50;96743.53;;;7.21;91.05
39141;BME280;24875;48.436;10.298;2023-02-21T00:24:34;96735.44;;;7.14;91.38
39141;BME280;24875;48.436;10.298;2023-02-21T00:27:18;96737.22;;;7.14;91.29
39141;BME280;24875;48.436;10.298;2023-02-21T00:30:05;96734.41;;;7.25;90.77
39141;BME280;24875;48.436;10.298;2023-02-21T00:32:49;96733.03;;;6.94;91.56
39141;BME280;24875;48.436;10.298;2023-02-21T00:35:33;96737.25;;;7.04;91.03
39141;BME280;24875;48.436;10.298;2023-02-21T00:38:17;96725.94;;;7.04;91.08
39141;BME280;24875;48.436;10.298;2023-02-21T00:41:01;96724.44;;;7.01;91.35
39141;BME280;24875;48.436;10.298;2023-02-21T00:43:45;96727.78;;;6.94;91.58
39141;BME280;24875;48.436;10.298;2023-02-21T00:46:31;96706.38;;;6.98;91.77
39141;BME280;24875;48.436;10.298;2023-02-21T00:49:15;96716.63;;;6.92;91.67
39141;BME280;24875;48.436;10.298;2023-02-21T00:51:59;96718.84;;;6.87;91.40
39141;BME280;24875;48.436;10.298;2023-02-21T00:54:43;96718.19;;;6.75;91.68
39141;BME280;24875;48.436;10.298;2023-02-21T00:57:27;96718.22;;;6.66;92.58
39141;BME280;24875;48.436;10.298;2023-02-21T01:00:16;96712.94;;;6.85;92.67
39141;BME280;24875;48.436;10.298;2023-02-21T01:03:02;96711.69;;;6.89;92.20
39141;BME280;24875;48.436;10.298;2023-02-21T01:05:46;96710.97;;;6.87;92.48
39141;BME280;24875;48.436;10.298;2023-02-21T01:08:30;96712.53;;;6.80;92.35
39141;BME280;24875;48.436;10.298;2023-02-21T01:11:14;96710.44;;;6.83;92.87
39141;BME280;24875;48.436;10.298;2023-02-21T01:13:59;96710.19;;;6.77;92.32
39141;BME280;24875;48.436;10.298;2023-02-21T01:16:43;96712.69;;;6.69;93.23
39141;BME280;24875;48.436;10.298;2023-02-21T01:19:28;96712.41;;;6.72;93.36
39141;BME280;24875;48.436;10.298;2023-02-21T01:22:12;96715.75;;;6.65;92.82
39141;BME280;24875;48.436;10.298;2023-02-21T01:24:56;96708.03;;;6.54;93.17
39141;BME280;24875;48.436;10.298;2023-02-21T01:27:40;96708.44;;;6.59;92.39
39141;BME280;24875;48.436;10.298;2023-02-21T01:30:24;96706.66;;;6.59;92.00
39141;BME280;24875;48.436;10.298;2023-02-21T01:33:09;96709.56;;;6.56;92.73
39141;BME280;24875;48.436;10.298;2023-02-21T01:35:55;96703.25;;;6.49;93.64
39141;BME280;24875;48.436;10.298;2023-02-21T01:38:38;96692.91;;;6.38;93.93
39141;BME280;24875;48.436;10.298;2023-02-21T01:41:23;96695.09;;;6.43;93.68
39141;BME280;24875;48.436;10.298;2023-02-21T01:44:35;96695.09;;;6.52;93.65
39141;BME280;24875;48.436;10.298;2023-02-21T01:47:20;96682.31;;;6.40;93.91
39141;BME280;24875;48.436;10.298;2023-02-21T01:50:10;96677.19;;;6.48;93.86
39141;BME280;24875;48.436;10.298;2023-02-21T01:52:56;96684.94;;;6.40;94.22
39141;BME280;24875;48.436;10.298;2023-02-21T01:55:41;96678.47;;;6.34;94.51
39141;BME280;24875;48.436;10.298;2023-02-21T01:58:28;96683.44;;;6.28;94.71
39141;BME280;24875;48.436;10.298;2023-02-21T02:04:19;96675.59;;;6.09;95.19
39141;BME280;24875;48.436;10.298;2023-02-21T02:07:03;96679.44;;;6.14;94.83
39141;BME280;24875;48.436;10.298;2023-02-21T02:09:48;96679.97;;;6.27;95.21
39141;BME280;24875;48.436;10.298;2023-02-21T02:12:58;96677.50;;;6.26;96.25
39141;BME280;24875;48.436;10.298;2023-02-21T02:15:46;96676.69;;;6.25;96.36
39141;BME280;24875;48.436;10.298;2023-02-21T02:18:34;96670.63;;;6.25;96.26
39141;BME280;24875;48.436;10.298;2023-02-21T02:21:53;96663.22;;;6.11;97.44
39141;BME280;24875;48.436;10.298;2023-02-21T02:24:43;96666.25;;;6.06;97.50
39141;BME280;24875;48.436;10.298;2023-02-21T02:30:42;96665.53;;;6.04;98.11
39141;BME280;24875;48.436;10.298;2023-02-21T02:33:48;96655.25;;;6.12;97.65
39141;BME280;24875;48.436;10.298;2023-02-21T02:36:23;96665.53;;;6.04;96.54
39141;BME280;24875;48.436;10.298;2023-02-21T02:38:58;96663.78;;;6.05;96.49
39141;BME280;24875;48.436;10.298;2023-02-21T02:41:33;96666.25;;;6.06;95.91
39141;BME280;24875;48.436;10.298;2023-02-21T02:44:11;96666.53;;;6.04;96.65
39141;BME280;24875;48.436;10.298;2023-02-21T02:46:40;96660.88;;;5.89;96.84
39141;BME280;24875;48.436;10.298;2023-02-21T02:49:11;96665.16;;;6.00;96.35
39141;BME280;24875;48.436;10.298;2023-02-21T02:51:41;96659.38;;;5.87;96.74
39141;BME280;24875;48.436;10.298;2023-02-21T02:54:08;96659.38;;;5.68;98.76
39141;BME280;24875;48.436;10.298;2023-02-21T02:56:34;96643.69;;;5.68;100.00
39141;BME280;24875;48.436;10.298;2023-02-21T02:59:05;96661.31;;;5.85;99.06
39141;BME280;24875;48.436;10.298;2023-02-21T03:01:48;96665.16;;;5.90;98.54
39141;BME280;24875;48.436;10.298;2023-02-21T03:04:39;96658.00;;;5.92;98.89
39141;BME280;24875;48.436;10.298;2023-02-21T03:07:18;96656.34;;;5.91;99.00
39141;BME280;24875;48.436;10.298;2023-02-21T03:09:53;96657.16;;;5.92;98.45
39141;BME280;24875;48.436;10.298;2023-02-21T03:12:32;96661.44;;;5.93;98.11
39141;BME280;24875;48.436;10.298;2023-02-21T03:15:07;96657.44;;;5.89;98.59
39141;BME280;24875;48.436;10.298;2023-02-21T03:17:39;96661.72;;;5.80;98.80
39141;BME280;24875;48.436;10.298;2023-02-21T03:20:10;96652.34;;;5.78;98.83
39141;BME280;24875;48.436;10.298;2023-02-21T03:22:39;96659.25;;;5.79;98.40
39141;BME280;24875;48.436;10.298;2023-02-21T03:25:09;96663.75;;;5.67;99.25
39141;BME280;24875;48.436;10.298;2023-02-21T03:27:37;96661.41;;;5.64;98.39
39141;BME280;24875;48.436;10.298;2023-02-21T03:30:07;96671.47;;;5.50;96.44
39141;BME280;24875;48.436;10.298;2023-02-21T03:32:36;96664.56;;;5.49;96.74
39141;BME280;24875;48.436;10.298;2023-02-21T03:35:05;96669.22;;;5.36;96.53
39141;BME280;24875;48.436;10.298;2023-02-21T03:37:34;96672.47;;;5.10;95.34
39141;BME280;24875;48.436;10.298;2023-02-21T03:40:04;96677.66;;;5.00;96.68
39141;BME280;24875;48.436;10.298;2023-02-21T03:42:31;96673.69;;;4.96;97.93
39141;BME280;24875;48.436;10.298;2023-02-21T03:44:57;96672.97;;;4.94;98.52
39141;BME280;24875;48.436;10.298;2023-02-21T03:47:24;96669.34;;;4.86;98.82
39141;BME280;24875;48.436;10.298;2023-02-21T03:49:50;96664.69;;;4.80;97.29
39141;BME280;24875;48.436;10.298;2023-02-21T03:52:17;96671.66;;;4.80;99.50
39141;BME280;24875;48.436;10.298;2023-02-21T03:54:43;96656.72;;;4.82;99.63
39141;BME280;24875;48.436;10.298;2023-02-21T03:57:11;96661.56;;;4.95;98.63
39141;BME280;24875;48.436;10.298;2023-02-21T03:59:37;96661.47;;;4.67;96.13
39141;BME280;24875;48.436;10.298;2023-02-21T04:02:04;96658.97;;;4.66;97.81
39141;BME280;24875;48.436;10.298;2023-02-21T04:04:31;96661.34;;;4.78;100.00
39141;BME280;24875;48.436;10.298;2023-02-21T04:06:57;96657.00;;;4.88;99.72
39141;BME280;24875;48.436;10.298;2023-02-21T04:09:24;96655.63;;;4.84;100.00
39141;BME280;24875;48.436;10.298;2023-02-21T04:11:51;96667.59;;;4.86;100.00
39141;BME280;24875;48.436;10.298;2023-02-21T04:14:20;96660.88;;;4.93;100.00
39141;BME280;24875;48.436;10.298;2023-02-21T04:16:47;96660.06;;;4.63;99.99
39141;BME280;24875;48.436;10.298;2023-02-21T04:19:13;96665.25;;;4.54;100.00
39141;BME280;24875;48.436;10.298;2023-02-21T04:21:40;96663.50;;;4.64;100.00
39141;BME280;24875;48.436;10.298;2023-02-21T04:24:06;96658.31;;;4.73;100.00
39141;BME280;24875;48.436;10.298;2023-02-21T04:26:33;96656.41;;;4.75;100.00
39141;BME280;24875;48.436;10.298;2023-02-21T04:29:00;96658.09;;;4.85;100.00
39141;BME280;24875;48.436;10.298;2023-02-21T04:31:28;96661.41;;;4.58;100.00
39141;BME280;24875;48.436;10.298;2023-02-21T04:33:54;96658.16;;;4.65;100.00
39141;BME280;24875;48.436;10.298;2023-02-21T04:36:21;96649.97;;;4.79;100.00
39141;BME280;24875;48.436;10.298;2023-02-21T04:38:47;96652.88;;;4.85;100.00
39141;BME280;24875;48.436;10.298;2023-02-21T04:41:15;96655.84;;;4.72;100.00
39141;BME280;24875;48.436;10.298;2023-02-21T04:43:41;96658.63;;;4.80;100.00
39141;BME280;24875;48.436;10.298;2023-02-21T04:46:08;96660.72;;;4.85;100.00
39141;BME280;24875;48.436;10.298;2023-02-21T04:48:36;96660.63;;;4.96;100.00
39141;BME280;24875;48.436;10.298;2023-02-21T04:51:03;96657.69;;;4.90;100.00
39141;BME280;24875;48.436;10.298;2023-02-21T04:53:29;96655.78;;;4.92;100.00
39141;BME280;24875;48.436;10.298;2023-02-21T04:55:56;96659.63;;;4.97;100.00
39141;BME280;24875;48.436;10.298;2023-02-21T04:58:22;96658.66;;;4.89;100.00
39141;BME280;24875;48.436;10.298;2023-02-21T05:00:48;96661.94;;;4.82;100.00
39141;BME280;24875;48.436;10.298;2023-02-21T05:03:15;96660.13;;;4.73;100.00
39141;BME280;24875;48.436;10.298;2023-02-21T05:05:43;96657.53;;;4.82;100.00
39141;BME280;24875;48.436;10.298;2023-02-21T05:08:10;96658.81;;;4.58;100.00
39141;BME280;24875;48.436;10.298;2023-02-21T05:10:36;96656.28;;;4.47;100.00
39141;BME280;24875;48.436;10.298;2023-02-21T05:13:03;96646.16;;;4.53;100.00
39141;BME280;24875;48.436;10.298;2023-02-21T05:15:29;96645.88;;;4.56;100.00
39141;BME280;24875;48.436;10.298;2023-02-21T05:17:56;96645.00;;;4.46;100.00
39141;BME280;24875;48.436;10.298;2023-02-21T05:20:22;96640.09;;;4.53;100.00
39141;BME280;24875;48.436;10.298;2023-02-21T05:22:50;96638.53;;;4.71;100.00
39141;BME280;24875;48.436;10.298;2023-02-21T05:25:18;96640.69;;;4.66;100.00
39141;BME280;24875;48.436;10.298;2023-02-21T05:27:45;96630.53;;;4.63;100.00
39141;BME280;24875;48.436;10.298;2023-02-21T05:30:14;96627.47;;;4.58;100.00
39141;BME280;24875;48.436;10.298;2023-02-21T05:32:41;96618.72;;;4.59;100.00
39141;BME280;24875;48.436;10.298;2023-02-21T05:35:08;96624.38;;;4.64;100.00
39141;BME280;24875;48.436;10.298;2023-02-21T05:37:35;96620.13;;;4.72;100.00
39141;BME280;24875;48.436;10.298;2023-02-21T05:40:03;96622.06;;;4.80;100.00
39141;BME280;24875;48.436;10.298;2023-02-21T05:42:30;96632.50;;;4.70;100.00
39141;BME280;24875;48.436;10.298;2023-02-21T05:44:56;96630.69;;;4.71;100.00
39141;BME280;24875;48.436;10.298;2023-02-21T05:47:23;96631.50;;;4.32;100.00
39141;BME280;24875;48.436;10.298;2023-02-21T05:49:49;96628.34;;;4.58;100.00
39141;BME280;24875;48.436;10.298;2023-02-21T05:52:16;96637.31;;;4.45;100.00
39141;BME280;24875;48.436;10.298;2023-02-21T05:54:43;96636.53;;;4.54;100.00
39141;BME280;24875;48.436;10.298;2023-02-21T05:57:11;96631.31;;;4.54;100.00
39141;BME280;24875;48.436;10.298;2023-02-21T05:59:37;96629.66;;;4.53;100.00
39141;BME280;24875;48.436;10.298;2023-02-21T06:02:04;96636.53;;;4.24;100.00
39141;BME280;24875;48.436;10.298;2023-02-21T06:04:31;96635.69;;;4.23;100.00
39141;BME280;24875;48.436;10.298;2023-02-21T06:06:57;96637.16;;;4.37;100.00
39141;BME280;24875;48.436;10.298;2023-02-21T06:09:23;96627.41;;;4.39;100.00
39141;BME280;24875;48.436;10.298;2023-02-21T06:11:50;96633.94;;;4.24;100.00
39141;BME280;24875;48.436;10.298;2023-02-21T06:14:22;96631.28;;;4.44;100.00
39141;BME280;24875;48.436;10.298;2023-02-21T06:16:49;96639.31;;;4.32;100.00
39141;BME280;24875;48.436;10.298;2023-02-21T06:19:16;96638.72;;;4.49;100.00
39141;BME280;24875;48.436;10.298;2023-02-21T06:21:43;96640.38;;;4.50;100.00
39141;BME280;24875;48.436;10.298;2023-02-21T06:24:10;96640.53;;;4.58;100.00
39141;BME280;24875;48.436;10.298;2023-02-21T06:26:39;96641.47;;;4.57;100.00
39141;BME280;24875;48.436;10.298;2023-02-21T06:29:06;96641.78;;;4.63;100.00
39141;BME280;24875;48.436;10.298;2023-02-21T06:31:34;96643.50;;;4.74;100.00
39141;BME280;24875;48.436;10.298;2023-02-21T06:34:01;96642.78;;;4.72;100.00
39141;BME280;24875;48.436;10.298;2023-02-21T06:36:28;96638.56;;;4.80;100.00
39141;BME280;24875;48.436;10.298;2023-02-21T06:38:56;96639.28;;;4.91;100.00
39141;BME280;24875;48.436;10.298;2023-02-21T06:41:24;96639.97;;;4.93;100.00
39141;BME280;24875;48.436;10.298;2023-02-21T06:43:51;96642.75;;;5.01;100.00
39141;BME280;24875;48.436;10.298;2023-02-21T06:46:20;96644.16;;;5.15;100.00
39141;BME280;24875;48.436;10.298;2023-02-21T06:48:49;96641.41;;;5.16;100.00
39141;BME280;24875;48.436;10.298;2023-02-21T06:51:16;96646.06;;;5.13;100.00
39141;BME280;24875;48.436;10.298;2023-02-21T06:53:44;96648.00;;;5.20;100.00
39141;BME280;24875;48.436;10.298;2023-02-21T06:56:14;96644.88;;;5.26;100.00
39141;BME280;24875;48.436;10.298;2023-02-21T06:58:40;96655.19;;;5.18;100.00
39141;BME280;24875;48.436;10.298;2023-02-21T07:01:07;96652.19;;;5.32;100.00
39141;BME280;24875;48.436;10.298;2023-02-21T07:03:33;96658.22;;;5.42;100.00
39141;BME280;24875;48.436;10.298;2023-02-21T07:06:05;96658.78;;;5.45;100.00
39141;BME280;24875;48.436;10.298;2023-02-21T07:08:31;96665.00;;;5.54;100.00
39141;BME280;24875;48.436;10.298;2023-02-21T07:10:58;96664.56;;;5.58;100.00
39141;BME280;24875;48.436;10.298;2023-02-21T07:13:24;96665.66;;;5.56;100.00
39141;BME280;24875;48.436;10.298;2023-02-21T07:15:51;96657.69;;;5.67;100.00
39141;BME280;24875;48.436;10.298;2023-02-21T07:18:17;96660.09;;;5.79;100.00
39141;BME280;24875;48.436;10.298;2023-02-21T07:20:44;96665.59;;;5.86;99.98
39141;BME280;24875;48.436;10.298;2023-02-21T07:23:11;96660.19;;;5.97;100.00
39141;BME280;24875;48.436;10.298;2023-02-21T07:25:38;96666.53;;;5.75;99.25
39141;BME280;24875;48.436;10.298;2023-02-21T07:28:04;96665.16;;;5.90;98.81
39141;BME280;24875;48.436;10.298;2023-02-21T07:30:31;96662.97;;;5.76;98.97
39141;BME280;24875;48.436;10.298;2023-02-21T07:32:58;96662.78;;;5.68;99.41
39141;BME280;24875;48.436;10.298;2023-02-21T07:35:25;96679.72;;;5.64;100.00
39141;BME280;24875;48.436;10.298;2023-02-21T07:37:51;96679.19;;;5.70;99.60
39141;BME280;24875;48.436;10.298;2023-02-21T07:40:19;96671.91;;;5.93;99.16
39141;BME280;24875;48.436;10.298;2023-02-21T07:42:46;96678.63;;;6.04;98.36
39141;BME280;24875;48.436;10.298;2023-02-21T07:45:14;96682.47;;;6.19;98.47
39141;BME280;24875;48.436;10.298;2023-02-21T07:47:41;96695.84;;;6.07;97.36
39141;BME280;24875;48.436;10.298;2023-02-21T07:50:10;96689.25;;;6.12;97.64
39141;BME280;24875;48.436;10.298;2023-02-21T07:52:36;96694.31;;;6.23;97.78
39141;BME280;24875;48.436;10.298;2023-02-21T07:55:03;96684.38;;;6.36;97.30
39141;BME280;24875;48.436;10.298;2023-02-21T07:57:31;96683.53;;;6.55;98.04
39141;BME280;24875;48.436;10.298;2023-02-21T07:59:57;96674.56;;;6.57;96.51
39141;BME280;24875;48.436;10.298;2023-02-21T08:02:24;96690.78;;;6.70;96.20
39141;BME280;24875;48.436;10.298;2023-02-21T08:04:51;96684.38;;;6.91;94.20
39141;BME280;24875;48.436;10.298;2023-02-21T08:07:18;96683.66;;;6.99;93.92
39141;BME280;24875;48.436;10.298;2023-02-21T08:09:44;96677.88;;;6.95;93.28
39141;BME280;24875;48.436;10.298;2023-02-21T08:12:11;96676.03;;;7.05;94.46
39141;BME280;24875;48.436;10.298;2023-02-21T08:14:39;96674.69;;;7.28;94.01
39141;BME280;24875;48.436;10.298;2023-02-21T08:17:05;96677.72;;;7.24;93.60
39141;BME280;24875;48.436;10.298;2023-02-21T08:19:31;96675.78;;;7.26;92.26
39141;BME280;24875;48.436;10.298;2023-02-21T08:21:58;96671.03;;;7.38;93.48
39141;BME280;24875;48.436;10.298;2023-02-21T08:24:24;96676.59;;;7.53;92.27
39141;BME280;24875;48.436;10.298;2023-02-21T08:26:51;96677.28;;;7.55;92.00
39141;BME280;24875;48.436;10.298;2023-02-21T08:29:17;96671.28;;;7.80;91.88
39141;BME280;24875;48.436;10.298;2023-02-21T08:31:45;96677.81;;;7.93;90.63
39141;BME280;24875;48.436;10.298;2023-02-21T08:34:12;96676.97;;;7.92;90.63
39141;BME280;24875;48.436;10.298;2023-02-21T08:36:40;96670.06;;;7.91;91.13
39141;BME280;24875;48.436;10.298;2023-02-21T08:39:07;96677.50;;;7.96;91.43
39141;BME280;24875;48.436;10.298;2023-02-21T08:41:35;96672.16;;;8.05;91.43
39141;BME280;24875;48.436;10.298;2023-02-21T08:44:02;96671.38;;;8.22;89.54
39141;BME280;24875;48.436;10.298;2023-02-21T08:46:29;96668.41;;;8.43;87.97
39141;BME280;24875;48.436;10.298;2023-02-21T08:48:57;96672.47;;;8.62;89.07
39141;BME280;24875;48.436;10.298;2023-02-21T08:51:24;96671.03;;;8.68;86.42
39141;BME280;24875;48.436;10.298;2023-02-21T08:53:51;96668.66;;;8.82;85.41
39141;BME280;24875;48.436;10.298;2023-02-21T08:56:18;96666.44;;;8.95;85.76
39141;BME280;24875;48.436;10.298;2023-02-21T08:58:45;96670.91;;;9.03;85.88
39141;BME280;24875;48.436;10.298;2023-02-21T09:01:11;96661.59;;;9.16;84.21
39141;BME280;24875;48.436;10.298;2023-02-21T09:03:38;96666.22;;;9.14;83.12
39141;BME280;24875;48.436;10.298;2023-02-21T09:06:06;96668.00;;;9.13;83.15
39141;BME280;24875;48.436;10.298;2023-02-21T09:08:33;96673.25;;;9.13;83.75
39141;BME280;24875;48.436;10.298;2023-02-21T09:11:01;96666.78;;;9.33;83.42
39141;BME280;24875;48.436;10.298;2023-02-21T09:13:28;96670.28;;;9.50;83.23
39141;BME280;24875;48.436;10.298;2023-02-21T09:15:57;96657.28;;;9.48;82.61
39141;BME280;24875;48.436;10.298;2023-02-21T09:18:24;96666.53;;;9.68;82.63
39141;BME280;24875;48.436;10.298;2023-02-21T09:20:51;96666.41;;;9.85;80.86
39141;BME280;24875;48.436;10.298;2023-02-21T09:23:20;96656.88;;;9.84;80.47
39141;BME280;24875;48.436;10.298;2023-02-21T09:25:47;96663.13;;;9.91;81.02
39141;BME280;24875;48.436;10.298;2023-02-21T09:28:14;96655.91;;;10.09;79.88
39141;BME280;24875;48.436;10.298;2023-02-21T09:30:41;96664.84;;;10.16;79.32
39141;BME280;24875;48.436;10.298;2023-02-21T09:33:08;96660.22;;;10.34;78.98
39141;BME280;24875;48.436;10.298;2023-02-21T09:35:34;96655.78;;;10.42;78.72
39141;BME280;24875;48.436;10.298;2023-02-21T09:38:02;96662.00;;;10.57;78.00
39141;BME280;24875;48.436;10.298;2023-02-21T09:40:35;96662.47;;;10.77;77.28
39141;BME280;24875;48.436;10.298;2023-02-21T09:43:10;96662.31;;;10.78;76.39
39141;BME280;24875;48.436;10.298;2023-02-21T09:45:39;96659.94;;;10.99;78.38
39141;BME280;24875;48.436;10.298;2023-02-21T09:48:11;96667.16;;;11.13;75.04
39141;BME280;24875;48.436;10.298;2023-02-21T09:50:41;96658.41;;;11.20;74.33
39141;BME280;24875;48.436;10.298;2023-02-21T09:53:10;96667.09;;;11.29;73.63
39141;BME280;24875;48.436;10.298;2023-02-21T09:55:40;96668.06;;;11.36;72.64
39141;BME280;24875;48.436;10.298;2023-02-21T09:58:10;96668.19;;;11.50;71.33
39141;BME280;24875;48.436;10.298;2023-02-21T10:00:38;96664.38;;;11.53;70.74
39141;BME280;24875;48.436;10.298;2023-02-21T10:03:14;96667.47;;;11.64;70.34
39141;BME280;24875;48.436;10.298;2023-02-21T10:05:45;96657.72;;;11.64;70.54
39141;BME280;24875;48.436;10.298;2023-02-21T10:08:19;96657.38;;;11.67;71.09
39141;BME280;24875;48.436;10.298;2023-02-21T10:10:52;96657.22;;;11.69;70.78
39141;BME280;24875;48.436;10.298;2023-02-21T10:13:29;96656.06;;;11.94;70.58
39141;BME280;24875;48.436;10.298;2023-02-21T10:16:03;96651.97;;;12.14;71.97
39141;BME280;24875;48.436;10.298;2023-02-21T10:18:36;96649.53;;;12.26;70.27
39141;BME280;24875;48.436;10.298;2023-02-21T10:21:11;96646.41;;;12.45;69.53
39141;BME280;24875;48.436;10.298;2023-02-21T10:23:42;96645.03;;;12.72;68.53
39141;BME280;24875;48.436;10.298;2023-02-21T10:26:15;96648.56;;;12.78;69.44
39141;BME280;24875;48.436;10.298;2023-02-21T10:28:42;96642.63;;;12.76;68.18
39141;BME280;24875;48.436;10.298;2023-02-21T10:31:11;96652.28;;;12.92;67.59
39141;BME280;24875;48.436;10.298;2023-02-21T10:33:39;96645.97;;;12.93;66.92
39141;BME280;24875;48.436;10.298;2023-02-21T10:36:16;96642.63;;;13.28;65.79
39141;BME280;24875;48.436;10.298;2023-02-21T10:38:53;96645.16;;;13.36;65.48
39141;BME280;24875;48.436;10.298;2023-02-21T10:41:22;96655.91;;;13.48;67.00
39141;BME280;24875;48.436;10.298;2023-02-21T10:43:54;96655.94;;;13.34;67.10
39141;BME280;24875;48.436;10.298;2023-02-21T10:46:27;96648.16;;;13.47;64.92
39141;BME280;24875;48.436;10.298;2023-02-21T10:49:14;96653.28;;;13.34;65.47
39141;BME280;24875;48.436;10.298;2023-02-21T10:51:41;96645.34;;;13.20;64.73
39141;BME280;24875;48.436;10.298;2023-02-21T10:54:19;96637.00;;;13.66;64.71
39141;BME280;24875;48.436;10.298;2023-02-21T10:56:47;96637.06;;;13.72;63.65
39141;BME280;24875;48.436;10.298;2023-02-21T10:59:20;96632.97;;;13.55;63.90
39141;BME280;24875;48.436;10.298;2023-02-21T11:01:48;96633.69;;;13.64;63.99
39141;BME280;24875;48.436;10.298;2023-02-21T11:04:25;96632.16;;;13.55;62.57
39141;BME280;24875;48.436;10.298;2023-02-21T11:06:54;96626.63;;;13.85;63.59
39141;BME280;24875;48.436;10.298;2023-02-21T11:09:31;96621.63;;;14.11;62.26
39141;BME280;24875;48.436;10.298;2023-02-21T11:14:23;96620.53;;;13.91;62.87
39141;BME280;24875;48.436;10.298;2023-02-21T11:17:05;96617.31;;;14.31;59.61
39141;BME280;24875;48.436;10.298;2023-02-21T11:19:52;96607.19;;;14.41;58.65
39141;BME280;24875;48.436;10.298;2023-02-21T11:22:21;96601.50;;;14.02;60.03
39141;BME280;24875;48.436;10.298;2023-02-21T11:25:03;96607.63;;;14.17;56.57
39141;BME280;24875;48.436;10.298;2023-02-21T11:27:32;96603.56;;;14.21;57.79
39141;BME280;24875;48.436;10.298;2023-02-21T11:30:03;96603.19;;;14.45;57.01
39141;BME280;24875;48.436;10.298;2023-02-21T11:32:37;96594.22;;;14.52;56.71
39141;BME280;24875;48.436;10.298;2023-02-21T11:35:14;96595.41;;;14.70;56.37
39141;BME280;24875;48.436;10.298;2023-02-21T11:37:48;96593.06;;;14.61;55.99
39141;BME280;24875;48.436;10.298;2023-02-21T11:40:29;96588.91;;;14.73;54.19
39141;BME280;24875;48.436;10.298;2023-02-21T11:43:21;96582.16;;;14.70;53.68
39141;BME280;24875;48.436;10.298;2023-02-21T11:45:59;96576.22;;;15.02;54.06
39141;BME280;24875;48.436;10.298;2023-02-21T11:48:29;96577.59;;;14.92;53.74
39141;BME280;24875;48.436;10.298;2023-02-21T11:51:02;96572.00;;;15.14;52.49
39141;BME280;24875;48.436;10.298;2023-02-21T11:53:33;96565.75;;;15.28;53.27
39141;BME280;24875;48.436;10.298;2023-02-21T11:56:07;96561.88;;;15.30;53.07
39141;BME280;24875;48.436;10.298;2023-02-21T11:58:40;96553.19;;;15.49;51.18
39141;BME280;24875;48.436;10.298;2023-02-21T12:01:15;96545.47;;;15.61;51.62
39141;BME280;24875;48.436;10.298;2023-02-21T12:03:54;96542.91;;;15.40;51.79
39141;BME280;24875;48.436;10.298;2023-02-21T12:06:30;96535.19;;;15.45;49.92
39141;BME280;24875;48.436;10.298;2023-02-21T12:09:01;96531.09;;;15.49;50.52
39141;BME280;24875;48.436;10.298;2023-02-21T12:14:51;96524.66;;;15.71;49.39
39141;BME280;24875;48.436;10.298;2023-02-21T12:17:37;96518.53;;;15.96;50.02
39141;BME280;24875;48.436;10.298;2023-02-21T12:20:23;96512.75;;;15.67;47.98
39141;BME280;24875;48.436;10.298;2023-02-21T12:23:00;96509.91;;;15.68;48.19
39141;BME280;24875;48.436;10.298;2023-02-21T12:25:32;96500.47;;;15.53;49.23
39141;BME280;24875;48.436;10.298;2023-02-21T12:28:10;96503.75;;;15.55;49.17
39141;BME280;24875;48.436;10.298;2023-02-21T12:30:52;96490.28;;;15.63;48.54
39141;BME280;24875;48.436;10.298;2023-02-21T12:33:31;96492.94;;;15.76;48.41
39141;BME280;24875;48.436;10.298;2023-02-21T12:36:23;96487.03;;;15.99;47.42
39141;BME280;24875;48.436;10.298;2023-02-21T12:38:53;96476.84;;;15.96;47.06
39141;BME280;24875;48.436;10.298;2023-02-21T12:41:37;96480.91;;;15.92;45.60
39141;BME280;24875;48.436;10.298;2023-02-21T12:44:12;96467.00;;;16.16;45.28
39141;BME280;24875;48.436;10.298;2023-02-21T12:46:43;96466.41;;;16.08;45.63
39141;BME280;24875;48.436;10.298;2023-02-21T12:49:18;96464.34;;;15.97;46.29
39141;BME280;24875;48.436;10.298;2023-02-21T12:51:51;96456.16;;;16.05;46.83
39141;BME280;24875;48.436;10.298;2023-02-21T12:54:22;96452.09;;;16.15;46.23
39141;BME280;24875;48.436;10.298;2023-02-21T12:56:53;96449.81;;;16.12;45.29
39141;BME280;24875;48.436;10.298;2023-02-21T12:59:26;96445.34;;;16.06;45.63
39141;BME280;24875;48.436;10.298;2023-02-21T13:01:58;96441.66;;;15.94;46.56
39141;BME280;24875;48.436;10.298;2023-02-21T13:04:33;96446.38;;;15.99;45.49
39141;BME280;24875;48.436;10.298;2023-02-21T13:07:04;96433.88;;;16.06;45.58
39141;BME280;24875;48.436;10.298;2023-02-21T13:09:38;96434.72;;;16.06;45.28
39141;BME280;24875;48.436;10.298;2023-02-21T13:12:08;96429.75;;;16.23;44.98
39141;BME280;24875;48.436;10.298;2023-02-21T13:14:47;96422.84;;;16.22;44.48
39141;BME280;24875;48.436;10.298;2023-02-21T13:17:15;96418.34;;;16.03;44.36
39141;BME280;24875;48.436;10.298;2023-02-21T13:19:46;96420.41;;;16.27;44.95
39141;BME280;24875;48.436;10.298;2023-02-21T13:25:25;96405.00;;;16.48;44.06
39141;BME280;24875;48.436;10.298;2023-02-21T13:28:00;96402.75;;;16.45;43.72
39141;BME280;24875;48.436;10.298;2023-02-21T13:30:37;96398.69;;;16.36;42.25
39141;BME280;24875;48.436;10.298;2023-02-21T13:33:05;96386.63;;;16.27;43.60
39141;BME280;24875;48.436;10.298;2023-02-21T13:35:36;96392.50;;;16.55;44.26
39141;BME280;24875;48.436;10.298;2023-02-21T13:38:04;96384.31;;;16.50;44.14
39141;BME280;24875;48.436;10.298;2023-02-21T13:43:04;96374.06;;;16.60;42.32